Time;durP1;ratioP1;P1;durP2;ratioP2;P2;SDS_P1;SDS_P2;PMS_P1;PMS_P2;Temp;Humidity;BMP_temperature;BMP_pressure;BME280_temperature;BME280_humidity;BME280_pressure;Samples;Min_cycle;Max_cycle;Signal;HPM_P1;HPM_P2
2022/11/10 00:01:22;;;;;;;17.02;5.65;;;8.10;99.90;;;7.38;100.00;101798.09;4087782;29;20036;-81
2022/11/10 00:03:27;;;;;;;8.90;4.53;;;8.20;99.90;;;7.37;100.00;101799.06;4102632;29;20027;-81
2022/11/10 00:05:28;;;;;;;12.73;4.72;;;8.20;99.90;;;7.34;100.00;101799.28;4102429;29;20027;-81
2022/11/10 00:07:29;;;;;;;10.68;4.15;;;8.20;99.90;;;7.39;100.00;101801.56;4102546;29;20112;-80
2022/11/10 00:09:29;;;;;;;13.18;5.30;;;8.30;99.90;;;7.36;100.00;101805.25;4087694;29;20044;-81
2022/11/10 00:11:30;;;;;;;12.40;6.50;;;8.20;99.90;;;7.33;100.00;101804.63;4087675;29;20032;-81
2022/11/10 00:13:34;;;;;;;9.85;5.90;;;8.20;99.90;;;7.29;100.00;101805.81;4102667;29;20047;-81
2022/11/10 00:18:00;;;;;;;10.73;6.43;;;8.10;99.90;;;7.27;100.00;101816.38;4100178;29;20042;-81
2022/11/10 00:20:01;;;;;;;11.57;5.03;;;8.10;99.90;;;7.29;100.00;101816.28;4087877;29;20038;-81
2022/11/10 00:22:02;;;;;;;9.93;5.13;;;8.10;99.90;;;7.32;100.00;101829.22;4102705;28;20071;-81
2022/11/10 00:24:04;;;;;;;13.52;6.38;;;8.10;99.90;;;7.27;100.00;101826.88;4090338;29;20436;-81
2022/11/10 00:26:12;;;;;;;13.73;7.13;;;8.10;99.90;;;7.26;100.00;101825.19;4090431;29;20087;-81
2022/11/10 00:28:13;;;;;;;22.63;9.88;;;8.20;99.90;;;7.25;100.00;101839.28;4105230;29;20031;-81
2022/11/10 00:30:14;;;;;;;14.20;7.80;;;8.10;99.90;;;7.24;100.00;101837.59;4105056;28;20102;-81
2022/11/10 00:32:15;;;;;;;13.23;7.00;;;8.10;99.90;;;7.19;100.00;101827.44;4090324;29;20051;-81
2022/11/10 00:34:16;;;;;;;17.15;7.95;;;8.10;99.90;;;7.20;100.00;101838.75;4073508;29;20046;-81
2022/11/10 00:36:17;;;;;;;12.38;6.78;;;8.00;99.90;;;7.18;100.00;101832.78;4090456;29;20092;-81
2022/11/10 00:38:18;;;;;;;18.80;7.97;;;8.10;99.90;;;7.15;100.00;101836.47;4089240;29;20023;-81
2022/11/10 00:40:19;;;;;;;17.10;9.00;;;8.00;99.90;;;7.16;100.00;101839.94;4073203;29;20024;-81
2022/11/10 00:42:20;;;;;;;12.82;7.45;;;8.00;99.90;;;7.10;100.00;101838.56;4090400;29;20415;-81
2022/11/10 00:44:21;;;;;;;11.75;6.70;;;8.00;99.90;;;7.11;100.00;101844.63;4089945;29;20035;-81
2022/11/10 00:46:22;;;;;;;16.35;6.63;;;8.00;99.90;;;7.10;100.00;101846.44;4090470;29;20087;-81
2022/11/10 00:48:23;;;;;;;11.73;6.55;;;8.00;99.90;;;7.07;100.00;101849.28;4073129;29;20036;-81
2022/11/10 00:50:24;;;;;;;13.70;6.53;;;7.90;99.90;;;7.01;100.00;101847.09;4089312;29;20039;-81
2022/11/10 00:52:25;;;;;;;16.52;7.22;;;7.90;99.90;;;7.01;100.00;101854.97;4073279;29;20052;-81
2022/11/10 00:54:26;;;;;;;17.05;8.07;;;7.90;99.90;;;6.99;100.00;101851.59;4073308;29;20036;-81
2022/11/10 00:56:27;;;;;;;17.45;6.72;;;7.90;99.90;;;6.96;100.00;101845.72;4088651;29;20048;-81
2022/11/10 00:58:28;;;;;;;12.23;6.38;;;7.80;99.90;;;6.98;100.00;101849.94;4088979;29;20035;-81
2022/11/10 01:00:28;;;;;;;12.68;5.45;;;7.80;99.90;;;6.97;100.00;101847.38;4090107;29;20023;-80
2022/11/10 01:02:29;;;;;;;9.45;5.30;;;7.80;99.90;;;6.99;100.00;101848.16;4088973;29;20028;-81
2022/11/10 01:04:30;;;;;;;11.68;4.60;;;7.80;99.90;;;7.00;100.00;101852.44;4088864;29;20091;-81
2022/11/10 01:06:31;;;;;;;9.20;4.43;;;7.80;99.90;;;6.98;100.00;101849.94;4089811;29;20035;-80
2022/11/10 01:08:32;;;;;;;8.18;4.20;;;7.80;99.90;;;6.91;100.00;101845.19;4088441;29;20035;-81
2022/11/10 01:10:33;;;;;;;7.60;4.32;;;7.80;99.90;;;6.91;100.00;101853.91;4088560;29;20038;-81
2022/11/10 01:12:34;;;;;;;12.88;4.32;;;7.80;99.90;;;6.85;100.00;101850.84;4089927;29;20091;-81
2022/11/10 01:14:35;;;;;;;12.20;5.07;;;7.70;99.90;;;6.85;100.00;101856.94;4089739;29;20530;-81
2022/11/10 01:16:36;;;;;;;9.10;4.40;;;7.70;99.90;;;6.84;100.00;101854.44;4088835;29;20028;-81
2022/11/10 01:18:37;;;;;;;9.80;4.38;;;7.70;99.90;;;6.83;100.00;101853.59;4090018;29;20028;-81
2022/11/10 01:20:37;;;;;;;13.07;5.28;;;7.70;99.90;;;6.79;100.00;101848.66;4089775;29;20408;-82
2022/11/10 01:22:39;;;;;;;10.70;4.43;;;7.70;99.90;;;6.79;100.00;101856.50;4088584;29;20015;-81
2022/11/10 01:24:40;;;;;;;7.68;3.88;;;7.60;99.90;;;6.75;100.00;101855.06;4088820;29;20498;-81
2022/11/10 01:26:41;;;;;;;7.43;4.70;;;7.60;99.90;;;6.73;100.00;101851.69;4088403;29;20030;-81
2022/11/10 01:28:42;;;;;;;5.10;3.80;;;7.60;99.90;;;6.71;100.00;101858.84;4089604;29;20032;-81
2022/11/10 01:30:42;;;;;;;8.02;4.50;;;7.60;99.90;;;6.65;100.00;101860.94;4088424;29;20055;-82
2022/11/10 01:32:43;;;;;;;7.30;3.78;;;7.60;99.90;;;6.59;100.00;101853.47;4104372;29;20027;-82
2022/11/10 01:34:44;;;;;;;6.18;3.85;;;7.50;99.90;;;6.61;100.00;101856.81;4087334;29;20038;-82
2022/11/10 01:36:45;;;;;;;7.20;3.97;;;7.50;99.90;;;6.57;100.00;101857.97;4090747;29;20032;-82
2022/11/10 01:38:46;;;;;;;8.40;4.70;;;7.50;99.90;;;6.57;100.00;101867.63;4095466;29;20103;-82
2022/11/10 01:40:47;;;;;;;8.70;4.05;;;7.50;99.90;;;6.53;100.00;101861.75;4072125;29;20028;-82
2022/11/10 01:42:56;;;;;;;10.23;4.35;;;7.50;99.90;;;6.53;100.00;101858.28;4088503;29;20027;-82
2022/11/10 01:45:22;;;;;;;9.25;4.32;;;7.40;99.90;;;6.57;100.00;101867.63;4089155;29;20102;-81
2022/11/10 01:47:23;;;;;;;6.85;3.78;;;7.40;99.90;;;6.55;100.00;101865.09;4089676;29;20042;-82
2022/11/10 01:49:27;;;;;;;8.30;4.40;;;7.40;99.90;;;6.59;100.00;101871.84;4072678;29;20466;-81
2022/11/10 01:51:39;;;;;;;10.80;4.10;;;7.40;99.90;;;6.56;100.00;101872.03;4072354;29;20036;-82
2022/11/10 01:53:47;;;;;;;6.85;3.75;;;7.50;99.90;;;6.58;100.00;101871.91;4089328;29;20099;-82
2022/11/10 01:55:49;;;;;;;7.45;3.85;;;7.40;99.90;;;6.57;100.00;101867.63;4089050;29;20070;-81
2022/11/10 01:57:50;;;;;;;7.13;3.42;;;7.40;99.90;;;6.55;100.00;101872.97;4089254;29;20024;-82
2022/11/10 01:59:51;;;;;;;7.85;3.95;;;7.40;99.90;;;6.54;100.00;101873.91;4087780;29;20034;-82
2022/11/10 02:01:57;;;;;;;8.07;4.03;;;7.40;99.90;;;6.54;100.00;101868.66;4089185;29;20036;-81
2022/11/10 02:04:06;;;;;;;6.25;3.75;;;7.40;99.90;;;6.52;100.00;101869.72;4088043;29;20038;-81
2022/11/10 02:06:07;;;;;;;5.97;4.47;;;7.40;99.90;;;6.54;100.00;101873.09;4087912;29;20032;-81
2022/11/10 02:08:09;;;;;;;8.00;3.92;;;7.40;99.90;;;6.51;100.00;101875.91;4071937;29;20119;-81
2022/11/10 02:10:16;;;;;;;9.30;4.82;;;7.40;99.90;;;6.47;100.00;101875.28;4087837;29;20032;-81
2022/11/10 02:12:35;;;;;;;8.95;4.80;;;7.40;99.90;;;6.47;100.00;101877.03;4087849;29;20024;-81
2022/11/10 02:14:36;;;;;;;9.23;3.97;;;7.40;99.90;;;6.47;100.00;101883.13;4087732;29;20038;-82
2022/11/10 02:16:39;;;;;;;12.73;5.03;;;7.40;99.90;;;6.44;100.00;101878.09;4072020;29;20027;-81
2022/11/10 02:18:40;;;;;;;7.57;4.35;;;7.40;99.90;;;6.44;100.00;101875.47;4087716;29;20031;-82
2022/11/10 02:20:45;;;;;;;7.82;4.65;;;7.40;99.90;;;6.45;100.00;101873.69;4087679;29;20027;-82
2022/11/10 02:22:46;;;;;;;11.40;4.53;;;7.30;99.90;;;6.41;100.00;101877.44;4071863;29;20060;-82
2022/11/10 02:24:47;;;;;;;5.90;4.07;;;7.30;99.90;;;6.43;100.00;101876.41;4089042;29;20041;-81
2022/11/10 02:26:53;;;;;;;10.38;4.35;;;7.30;99.90;;;6.43;100.00;101876.41;4087635;29;20039;-82
2022/11/10 02:28:54;;;;;;;7.10;3.95;;;7.30;99.90;;;6.42;100.00;101869.47;4071616;29;20579;-81
2022/11/10 02:30:55;;;;;;;11.52;4.63;;;7.30;99.90;;;6.46;100.00;101881.44;4087512;29;20039;-82
2022/11/10 02:32:56;;;;;;;7.82;4.85;;;7.40;99.90;;;6.42;100.00;101877.34;4088727;29;20027;-82
2022/11/10 02:34:56;;;;;;;9.23;5.55;;;7.30;99.90;;;6.44;100.00;101885.97;4088732;29;20031;-82
2022/11/10 02:36:57;;;;;;;10.32;5.25;;;7.30;99.90;;;6.41;100.00;101878.28;4088572;29;20031;-82
2022/11/10 02:38:58;;;;;;;8.18;5.10;;;7.30;99.90;;;6.43;100.00;101876.41;4087551;29;20043;-81
2022/11/10 02:40:59;;;;;;;12.02;5.00;;;7.30;99.90;;;6.40;100.00;101873.13;4071459;29;20033;-82
2022/11/10 02:43:01;;;;;;;7.50;4.10;;;7.30;99.90;;;6.42;100.00;101879.97;4071597;29;20036;-82
2022/11/10 02:45:02;;;;;;;6.32;4.10;;;7.30;99.90;;;6.38;100.00;101873.25;4088145;29;20107;-81
2022/11/10 02:47:03;;;;;;;10.10;3.90;;;7.30;99.90;;;6.36;100.00;101874.31;4087484;29;20044;-81
2022/11/10 02:49:04;;;;;;;9.10;4.25;;;7.30;99.90;;;6.38;100.00;101881.13;4087330;29;20059;-81
2022/11/10 02:51:05;;;;;;;8.27;4.95;;;7.30;99.90;;;6.33;100.00;101872.69;4088478;29;20023;-82
2022/11/10 02:53:07;;;;;;;10.23;5.35;;;7.30;99.90;;;6.41;100.00;101880.91;4087251;29;20079;-81
2022/11/10 02:55:08;;;;;;;8.07;4.57;;;7.30;99.90;;;6.43;100.00;101881.66;4087274;29;20468;-81
2022/11/10 02:57:09;;;;;;;12.77;4.95;;;7.30;99.90;;;6.40;100.00;101871.38;4087104;29;20023;-81
2022/11/10 02:59:10;;;;;;;7.82;5.22;;;7.30;99.90;;;6.39;100.00;101877.53;4088433;29;20034;-82
2022/11/10 03:01:10;;;;;;;7.15;4.55;;;7.40;99.90;;;6.36;100.00;101875.13;4088337;29;20028;-81
2022/11/10 03:03:11;;;;;;;6.93;5.10;;;7.30;99.90;;;6.33;100.00;101870.06;4087169;29;20118;-81
2022/11/10 03:05:12;;;;;;;7.00;4.20;;;7.30;99.90;;;6.26;100.00;101866.19;4088491;29;20078;-81
2022/11/10 03:07:13;;;;;;;9.65;4.88;;;7.20;99.90;;;6.28;100.00;101882.66;4071321;29;20090;-81
2022/11/10 03:09:14;;;;;;;8.32;5.05;;;7.20;99.90;;;6.26;100.00;101876.69;4088414;29;20033;-81
2022/11/10 03:11:15;;;;;;;8.68;5.00;;;7.20;99.90;;;6.24;100.00;101878.56;4087893;29;20035;-81
2022/11/10 03:13:16;;;;;;;6.93;4.45;;;7.10;99.90;;;6.22;100.00;101875.19;4088420;29;20396;-81
2022/11/10 03:15:16;;;;;;;8.50;4.82;;;7.20;99.90;;;6.27;100.00;101885.38;4071440;29;20039;-81
2022/11/10 03:17:17;;;;;;;7.07;4.70;;;7.20;99.90;;;6.25;100.00;101879.38;4088080;29;20032;-82
2022/11/10 03:19:18;;;;;;;7.78;4.60;;;7.20;99.90;;;6.25;100.00;101880.22;4086925;29;20576;-81
2022/11/10 03:21:19;;;;;;;7.93;4.82;;;7.10;99.90;;;6.26;100.00;101884.53;4086976;29;20035;-81
2022/11/10 03:23:20;;;;;;;7.53;4.40;;;7.10;99.90;;;6.25;100.00;101882.84;4088208;29;20087;-81
2022/11/10 03:25:21;;;;;;;9.60;4.85;;;7.10;99.90;;;6.27;100.00;101883.63;4070949;29;20519;-81
2022/11/10 03:27:22;;;;;;;6.65;4.57;;;7.10;99.90;;;6.26;100.00;101875.84;4088007;29;20043;-81
2022/11/10 03:29:22;;;;;;;7.63;5.03;;;7.10;99.90;;;6.30;100.00;101880.75;4087124;29;20036;-81
2022/11/10 03:31:23;;;;;;;10.18;4.32;;;7.20;99.90;;;6.34;100.00;101882.25;4087913;29;20460;-81
2022/11/10 03:33:24;;;;;;;8.27;4.85;;;7.20;99.90;;;6.36;100.00;101888.22;4088081;29;20078;-81
2022/11/10 03:35:26;;;;;;;10.63;5.00;;;7.20;99.90;;;6.36;100.00;101885.59;4070982;29;20028;-81
2022/11/10 03:37:27;;;;;;;10.27;4.78;;;7.20;99.90;;;6.39;100.00;101880.16;4071305;29;20032;-81
2022/11/10 03:39:28;;;;;;;8.68;4.45;;;7.30;99.90;;;6.40;100.00;101886.25;4088149;29;20039;-81
2022/11/10 03:41:29;;;;;;;5.93;4.20;;;7.20;99.90;;;6.37;100.00;101883.81;4086703;29;20031;-82
2022/11/10 03:43:30;;;;;;;6.03;3.58;;;7.20;99.90;;;6.36;100.00;101887.41;4087891;29;20039;-81
2022/11/10 03:45:30;;;;;;;9.32;4.25;;;7.20;99.90;;;6.33;100.00;101885.81;4088964;29;20050;-82
2022/11/10 03:47:31;;;;;;;8.63;4.60;;;7.20;99.90;;;6.36;100.00;101875.13;4086882;29;20044;-81
2022/11/10 03:49:32;;;;;;;10.98;5.07;;;7.20;99.90;;;6.42;100.00;101884.38;4086834;29;20031;-81
2022/11/10 03:51:33;;;;;;;8.40;4.57;;;7.30;99.90;;;6.42;100.00;101885.19;4087822;29;20064;-81
2022/11/10 03:53:34;;;;;;;6.07;4.20;;;7.30;99.90;;;6.41;100.00;101895.78;4087931;29;20440;-81
2022/11/10 03:55:34;;;;;;;8.05;4.47;;;7.30;99.90;;;6.37;100.00;101887.28;4087888;29;20049;-81
2022/11/10 03:57:35;;;;;;;7.90;4.65;;;7.30;99.90;;;6.36;100.00;101885.59;4088564;29;20033;-81
2022/11/10 03:59:36;;;;;;;6.93;4.43;;;7.30;99.90;;;6.38;100.00;101899.47;4089721;29;20035;-81
2022/11/10 04:01:37;;;;;;;14.75;5.00;;;7.30;99.90;;;6.40;100.00;101891.47;4091058;29;20031;-82
2022/11/10 04:03:38;;;;;;;8.25;4.60;;;7.30;99.90;;;6.34;100.00;101895.34;4090969;29;20043;-82
2022/11/10 04:10:19;;;;;;;5.13;3.95;;;7.30;99.90;;;6.39;100.00;101898.50;4089572;29;20035;-81
2022/11/10 04:17:00;;;;;;;8.82;4.55;;;7.30;99.90;;;6.40;100.00;101897.56;4090008;29;20067;-81
2022/11/10 04:19:01;;;;;;;7.00;4.43;;;7.30;99.90;;;6.42;100.00;101911.41;4089504;29;20032;-81
2022/11/10 04:21:02;;;;;;;11.02;4.65;;;7.30;99.90;;;6.47;100.00;101914.59;4090581;29;20181;-81
2022/11/10 04:25:22;;;;;;;12.82;5.10;;;7.30;99.90;;;6.47;100.00;101905.88;4090560;29;20098;-81
2022/11/10 04:27:24;;;;;;;10.63;5.20;;;7.30;99.90;;;6.55;100.00;101908.81;4090457;29;20451;-81
2022/11/10 04:29:25;;;;;;;9.50;5.22;;;7.40;99.90;;;6.55;100.00;101916.69;4090596;29;20040;-81
2022/11/10 04:31:29;;;;;;;11.18;5.75;;;7.40;99.90;;;6.56;100.00;101906.13;4089160;29;20036;-82
2022/11/10 04:33:30;;;;;;;9.32;5.65;;;7.40;99.90;;;6.58;100.00;101909.47;4105209;29;20090;-81
2022/11/10 04:35:30;;;;;;;13.65;5.78;;;7.40;99.90;;;6.56;100.00;101907.88;4105017;29;20038;-81
2022/11/10 04:37:31;;;;;;;8.55;5.55;;;7.40;99.90;;;6.59;100.00;101915.56;4090546;29;20067;-81
2022/11/10 04:39:32;;;;;;;15.57;6.88;;;7.50;99.90;;;6.59;100.00;101903.28;4105238;29;20028;-81
2022/11/10 04:41:33;;;;;;;10.80;6.22;;;7.40;99.90;;;6.62;100.00;101917.97;4089021;29;20047;-81
2022/11/10 04:43:35;;;;;;;12.57;5.88;;;7.50;99.90;;;6.62;100.00;101916.19;4090271;29;20028;-81
2022/11/10 04:45:36;;;;;;;9.80;6.18;;;7.50;99.90;;;6.62;100.00;101929.31;4090019;29;20035;-81
2022/11/10 04:47:37;;;;;;;15.50;6.85;;;7.50;99.90;;;6.61;100.00;101927.63;4073530;29;20548;-81
2022/11/10 04:49:38;;;;;;;16.67;6.90;;;7.50;99.90;;;6.57;100.00;101926.13;4090191;29;20542;-81
2022/11/10 04:51:39;;;;;;;8.60;5.57;;;7.50;99.90;;;6.58;100.00;101921.72;4104830;29;20079;-82
2022/11/10 04:53:40;;;;;;;9.50;5.43;;;7.50;99.90;;;6.60;100.00;101933.78;4089151;29;20031;-81
2022/11/10 04:55:44;;;;;;;7.70;4.75;;;7.40;99.90;;;6.53;100.00;101932.53;4104640;29;20052;-81
2022/11/10 04:57:45;;;;;;;8.77;6.00;;;7.40;99.90;;;6.51;100.00;101937.00;4104853;29;20042;-81
2022/11/10 04:59:46;;;;;;;11.50;5.78;;;7.40;99.90;;;6.48;100.00;101937.22;4072952;29;20432;-81
2022/11/10 05:01:47;;;;;;;11.38;5.50;;;7.40;99.90;;;6.45;100.00;101944.47;4089812;29;20031;-81
2022/11/10 05:03:49;;;;;;;12.27;5.75;;;7.40;99.90;;;6.39;100.00;101926.50;4090038;29;20056;-81
2022/11/10 05:05:51;;;;;;;8.65;6.32;;;7.30;99.90;;;6.35;100.00;101928.50;4104680;29;20118;-81
2022/11/10 05:07:51;;;;;;;10.07;6.22;;;7.30;99.90;;;6.40;100.00;101936.88;4104518;29;20106;-81
2022/11/10 05:09:52;;;;;;;12.60;6.60;;;7.30;99.90;;;6.44;100.00;101937.53;4089823;29;20040;-81
2022/11/10 05:11:53;;;;;;;15.27;6.53;;;7.30;99.90;;;6.48;100.00;101939.03;4089703;29;20035;-81
2022/11/10 05:13:54;;;;;;;11.13;5.32;;;7.30;99.90;;;6.49;100.00;101944.16;4089954;29;20027;-81
2022/11/10 05:15:55;;;;;;;13.05;5.95;;;7.30;99.90;;;6.49;100.00;101940.69;4089782;29;20039;-81
2022/11/10 05:17:57;;;;;;;9.57;5.68;;;7.30;99.90;;;6.43;100.00;101939.31;4089909;29;20028;-81
2022/11/10 05:19:57;;;;;;;9.18;5.60;;;7.30;99.90;;;6.42;100.00;101942.84;4089866;29;20515;-81
2022/11/10 05:21:58;;;;;;;7.95;4.65;;;7.30;99.90;;;6.42;100.00;101942.84;4089788;29;20031;-81
2022/11/10 05:23:59;;;;;;;6.47;4.03;;;7.30;99.90;;;6.38;100.00;101941.41;4089583;29;20039;-81
2022/11/10 05:26:00;;;;;;;13.30;5.32;;;7.30;99.90;;;6.38;100.00;101944.00;4104325;29;20053;-81
2022/11/10 05:28:02;;;;;;;8.00;4.47;;;7.30;99.90;;;6.35;100.00;101946.84;4088586;29;20439;-81
2022/11/10 05:30:03;;;;;;;13.15;5.60;;;7.20;99.90;;;6.35;100.00;101956.47;4104295;28;20039;-81
2022/11/10 05:32:04;;;;;;;10.85;5.57;;;7.20;99.90;;;6.32;100.00;101947.03;4089510;29;20051;-81
2022/11/10 05:34:05;;;;;;;11.48;5.60;;;7.20;99.90;;;6.32;100.00;101952.28;4089781;29;20468;-81
2022/11/10 05:36:07;;;;;;;9.93;6.38;;;7.20;99.90;;;6.34;100.00;101955.63;4089680;29;20921;-81
2022/11/10 05:38:08;;;;;;;10.98;5.18;;;7.20;99.90;;;6.33;100.00;101951.31;4089535;29;20075;-81
2022/11/10 05:40:10;;;;;;;12.88;5.65;;;7.20;99.90;;;6.36;100.00;101953.72;4088108;29;20408;-81
2022/11/10 05:42:10;;;;;;;8.60;5.32;;;7.20;99.90;;;6.35;100.00;101957.31;4088322;29;20423;-81
2022/11/10 05:44:11;;;;;;;13.57;5.63;;;7.20;99.90;;;6.34;100.00;101966.09;4089490;29;20036;-81
2022/11/10 05:46:12;;;;;;;8.27;5.13;;;7.20;99.90;;;6.34;100.00;101971.34;4090312;29;20439;-81
2022/11/10 05:48:13;;;;;;;9.68;4.93;;;7.20;99.90;;;6.29;100.00;101956.88;4089388;29;20044;-81
2022/11/10 05:50:15;;;;;;;10.13;5.13;;;7.20;99.90;;;6.25;100.00;101968.47;4072160;29;20084;-81
2022/11/10 05:52:16;;;;;;;8.27;5.00;;;7.20;99.90;;;6.26;100.00;101973.63;4088122;29;20024;-81
2022/11/10 05:54:17;;;;;;;10.90;4.80;;;7.20;99.90;;;6.26;100.00;101978.88;4089286;29;20082;-80
2022/11/10 05:56:18;;;;;;;6.63;4.45;;;7.20;99.90;;;6.28;100.00;101987.47;4087859;29;20099;-81
2022/11/10 05:58:19;;;;;;;11.13;5.30;;;7.10;99.90;;;6.30;100.00;101985.56;4072079;29;20063;-81
2022/11/10 06:00:26;;;;;;;8.48;5.55;;;7.20;99.90;;;6.31;100.00;101987.25;4072096;29;20075;-80
2022/11/10 06:02:27;;;;;;;18.73;6.05;;;7.20;99.90;;;6.27;100.00;101980.56;4089175;29;20064;-81
2022/11/10 06:04:28;;;;;;;9.38;4.63;;;7.20;99.90;;;6.29;100.00;101983.91;4087863;29;20036;-81
2022/11/10 06:06:29;;;;;;;15.40;5.75;;;7.20;99.90;;;6.27;100.00;101977.94;4089167;29;20030;-81
2022/11/10 06:08:29;;;;;;;8.63;4.72;;;7.20;99.90;;;6.32;100.00;101982.88;4089459;29;20031;-81
2022/11/10 06:10:32;;;;;;;12.40;4.97;;;7.20;99.90;;;6.31;100.00;101981.19;4087703;29;20028;-81
2022/11/10 06:12:33;;;;;;;7.68;4.80;;;7.20;99.90;;;6.32;100.00;101977.63;4087818;29;20039;-81
2022/11/10 06:14:33;;;;;;;10.35;5.15;;;7.20;99.90;;;6.34;100.00;101991.47;4089020;29;20024;-81
2022/11/10 06:16:34;;;;;;;11.85;4.97;;;7.20;99.90;;;6.34;100.00;101992.31;4089231;29;20024;-81
2022/11/10 06:18:35;;;;;;;11.00;5.00;;;7.20;99.90;;;6.34;100.00;101989.69;4089065;29;20075;-81
2022/11/10 06:20:36;;;;;;;9.63;4.70;;;7.20;99.90;;;6.33;100.00;101982.75;4087221;29;20036;-81
2022/11/10 06:22:37;;;;;;;12.00;5.13;;;7.20;99.90;;;6.34;100.00;101989.69;4087621;29;20050;-81
2022/11/10 06:24:38;;;;;;;10.63;5.53;;;7.30;99.90;;;6.37;100.00;101992.13;4087817;29;20032;-81
2022/11/10 06:26:39;;;;;;;9.40;4.82;;;7.30;99.90;;;6.37;100.00;101986.88;4088500;29;20516;-81
2022/11/10 06:28:40;;;;;;;11.43;5.25;;;7.30;99.90;;;6.39;100.00;101979.75;4071821;29;20052;-81
2022/11/10 06:30:41;;;;;;;10.52;5.35;;;7.30;99.90;;;6.43;100.00;101988.25;4071257;29;20040;-81
2022/11/10 06:32:45;;;;;;;13.10;5.72;;;7.30;99.90;;;6.44;100.00;101985.56;4103446;29;20027;-81
2022/11/10 06:34:48;;;;;;;13.35;6.00;;;7.30;99.90;;;6.46;100.00;101986.28;4103091;29;20047;-81
2022/11/10 06:36:48;;;;;;;13.45;6.03;;;7.30;99.90;;;6.46;100.00;101994.16;4088658;29;20028;-81
2022/11/10 06:38:49;;;;;;;12.35;5.57;;;7.30;99.90;;;6.50;100.00;102011.38;4088364;29;20031;-81
2022/11/10 06:40:50;;;;;;;9.60;5.22;;;7.30;99.90;;;6.49;100.00;102006.22;4088014;29;20028;-81
2022/11/10 06:42:51;;;;;;;14.93;6.65;;;7.40;99.90;;;6.50;100.00;102008.75;4087371;29;20042;-81
2022/11/10 06:44:52;;;;;;;10.68;6.07;;;7.40;99.90;;;6.47;100.00;102000.22;4089521;29;20020;-81
2022/11/10 06:46:53;;;;;;;10.07;5.70;;;7.40;99.90;;;6.50;100.00;102003.50;4087154;29;20034;-81
2022/11/10 06:48:53;;;;;;;20.67;7.47;;;7.40;99.90;;;6.50;100.00;101997.41;4102340;29;20031;-81
2022/11/10 06:50:54;;;;;;;11.70;5.40;;;7.40;99.90;;;6.55;100.00;102001.41;4055451;29;20076;-81
2022/11/10 06:52:59;;;;;;;18.10;5.65;;;7.40;99.90;;;6.58;100.00;102000.38;4088274;29;20484;-81
2022/11/10 06:54:59;;;;;;;;;;;7.50;99.90;;;6.57;100.00;102003.97;4087352;29;20024;-81
2022/11/10 06:57:00;;;;;;;14.45;5.70;;;7.50;99.90;;;6.59;100.00;102013.41;4086880;29;19910;-81
2022/11/10 06:59:01;;;;;;;14.95;5.60;;;7.50;99.90;;;6.61;100.00;102011.50;4094012;29;20035;-81
2022/11/10 07:01:02;;;;;;;21.10;6.90;;;7.50;99.90;;;6.57;100.00;102002.16;4087096;29;20039;-81
2022/11/10 07:03:06;;;;;;;14.45;5.45;;;7.50;99.90;;;6.58;100.00;101995.97;4072451;29;20048;-81
2022/11/10 07:05:08;;;;;;;14.63;5.43;;;7.50;99.90;;;6.60;100.00;102003.75;4087287;29;20038;-81
2022/11/10 07:07:10;;;;;;;15.32;5.43;;;7.50;99.90;;;6.61;100.00;102013.28;4072611;29;20028;-81
2022/11/10 07:09:11;;;;;;;11.45;4.80;;;7.50;99.90;;;6.60;100.00;102022.91;4087146;29;20053;-81
2022/11/10 07:11:12;;;;;;;14.10;5.43;;;7.50;99.90;;;6.57;100.00;102019.69;4086799;29;20443;-81
2022/11/10 07:13:13;;;;;;;8.90;4.30;;;7.50;99.90;;;6.54;100.00;102018.06;4071627;29;20047;-81
2022/11/10 07:15:14;;;;;;;10.75;4.85;;;7.40;99.90;;;6.57;100.00;102025.75;4086502;29;20062;-81
2022/11/10 07:17:14;;;;;;;11.35;4.72;;;7.50;99.90;;;6.59;100.00;102023.03;4088331;29;20028;-81
2022/11/10 07:19:15;;;;;;;8.75;4.82;;;7.50;99.90;;;6.62;100.00;102028.09;4088054;29;20039;-81
2022/11/10 07:21:16;;;;;;;17.40;5.18;;;7.50;99.90;;;6.67;100.00;102033.84;4088286;29;20032;-81
2022/11/10 07:23:17;;;;;;;12.27;4.95;;;7.50;99.90;;;6.64;100.00;102027.03;4087051;29;20031;-81
2022/11/10 07:25:18;;;;;;;11.63;5.13;;;7.60;99.90;;;6.65;100.00;102022.63;4087838;29;20039;-82
2022/11/10 07:27:19;;;;;;;63.17;8.30;;;7.60;99.90;;;6.66;100.00;102030.38;4086877;29;20083;-81
2022/11/10 07:29:19;;;;;;;24.95;6.40;;;7.60;99.90;;;6.66;100.00;102034.78;4088117;29;20080;-81
2022/11/10 07:31:20;;;;;;;11.20;6.05;;;7.60;99.90;;;6.68;100.00;102032.94;4087841;29;20489;-81
2022/11/10 07:33:21;;;;;;;8.48;4.40;;;7.60;99.90;;;6.72;100.00;102033.56;4090014;29;20024;-81
2022/11/10 07:35:22;;;;;;;14.98;5.00;;;7.60;99.90;;;6.77;100.00;102048.06;4090079;29;20032;-81
2022/11/10 07:37:23;;;;;;;22.10;6.47;;;7.60;99.90;;;6.81;100.00;102048.72;4091473;29;20411;-81
2022/11/10 07:39:24;;;;;;;33.60;6.78;;;7.70;99.90;;;6.82;100.00;102051.22;4090222;29;20028;-81
2022/11/10 07:41:25;;;;;;;12.15;5.32;;;7.70;99.90;;;6.85;100.00;102055.41;4091049;29;20031;-81
2022/11/10 07:43:25;;;;;;;39.55;7.53;;;7.70;99.90;;;6.89;100.00;102059.53;4089989;29;20385;-80
2022/11/10 07:45:27;;;;;;;21.73;5.45;;;7.80;99.90;;;6.94;100.00;102062.69;4091014;29;20100;-80
2022/11/10 07:47:27;;;;;;;19.95;5.68;;;7.80;99.90;;;6.98;100.00;102075.53;4096932;29;20059;-80
2022/11/10 07:49:28;;;;;;;12.25;5.18;;;7.90;99.90;;;7.01;100.00;102077.94;4091143;29;20030;-80
2022/11/10 07:51:30;;;;;;;21.33;5.20;;;7.90;99.90;;;7.02;100.00;102070.88;4090964;29;20067;-81
2022/11/10 07:53:31;;;;;;;11.00;4.63;;;7.90;99.90;;;7.05;100.00;102081.19;4105667;29;20029;-80
2022/11/10 07:55:33;;;;;;;23.02;7.00;;;7.90;99.90;;;7.07;100.00;102081.94;4108031;28;20027;-80
2022/11/10 07:57:34;;;;;;;8.55;4.43;;;8.00;99.90;;;7.07;100.00;102081.94;4105723;29;20088;-80
2022/11/10 07:59:35;;;;;;;13.88;5.25;;;8.00;99.90;;;7.14;100.00;102093.69;4091047;29;20505;-80
2022/11/10 08:01:36;;;;;;;10.25;4.60;;;8.00;99.90;;;7.09;100.00;102086.16;4105531;29;20032;-80
2022/11/10 08:03:36;;;;;;;14.70;5.13;;;8.10;99.90;;;7.12;100.00;102095.59;4091066;29;20039;-80
2022/11/10 08:05:38;;;;;;;7.97;4.35;;;8.00;99.90;;;7.16;100.00;102102.34;4090840;29;20380;-80
2022/11/10 08:07:39;;;;;;;10.02;4.55;;;8.10;99.90;;;7.16;100.00;102097.09;4105584;29;20027;-80
2022/11/10 08:09:40;;;;;;;10.23;5.53;;;8.10;99.90;;;7.23;100.00;102109.69;4089427;29;20032;-80
2022/11/10 08:11:41;;;;;;;10.40;5.00;;;8.10;99.90;;;7.27;100.00;102106.84;4090684;29;20611;-80
2022/11/10 08:13:42;;;;;;;10.90;5.85;;;8.10;99.90;;;7.29;100.00;102105.81;4090852;29;20016;-80
2022/11/10 08:15:43;;;;;;;12.45;4.57;;;8.20;99.90;;;7.35;100.00;102118.53;4105506;29;20039;-80
2022/11/10 08:17:44;;;;;;;13.82;5.50;;;8.20;99.90;;;7.37;100.00;102124.53;4090650;29;20019;-80
2022/11/10 08:19:45;;;;;;;9.32;4.43;;;8.20;99.90;;;7.42;100.00;102134.72;4090724;29;20047;-80
2022/11/10 08:21:45;;;;;;;16.98;4.85;;;8.30;99.90;;;7.48;100.00;102134.31;4105448;29;20027;-80
2022/11/10 08:23:46;;;;;;;10.25;4.50;;;8.40;99.90;;;7.49;100.00;102131.59;4089381;29;20031;-80
2022/11/10 08:25:51;;;;;;;11.45;5.57;;;8.40;99.90;;;7.58;100.00;102140.66;4090273;29;20023;-81
2022/11/10 08:28:21;;;;;;;8.13;4.28;;;8.40;99.90;;;7.63;100.00;102152.53;4090643;29;20028;-80
2022/11/10 08:30:22;;;;;;;9.07;5.20;;;8.50;99.90;;;7.67;100.00;102151.38;4089745;29;20098;-81
2022/11/10 08:32:23;;;;;;;10.25;5.25;;;8.60;99.90;;;7.71;100.00;102146.72;4105281;28;20485;-81
2022/11/10 08:34:24;;;;;;;13.20;5.40;;;8.70;99.90;;;7.76;100.00;102144.66;4089435;29;20039;-81
2022/11/10 08:36:25;;;;;;;17.25;6.53;;;8.70;99.90;;;7.75;100.00;102142.97;4090616;29;20107;-81
2022/11/10 08:38:26;;;;;;;14.18;5.78;;;8.70;99.90;;;7.84;100.00;102147.59;4105140;29;20035;-81
2022/11/10 08:40:27;;;;;;;11.68;5.57;;;8.70;99.90;;;7.86;100.00;102144.84;4088909;29;20038;-81
2022/11/10 08:42:28;;;;;;;15.48;6.00;;;8.80;99.90;;;7.91;100.00;102155.91;4090375;29;20033;-81